sensor_id;sensor_type;location;lat;lon;timestamp;P1;durP1;ratioP1;P2;durP2;ratioP2
57593;SDS011;43423;46.510;6.686;2023-12-04T00:00:46;16.55;;;6.00;;
57593;SDS011;43423;46.510;6.686;2023-12-04T00:03:32;14.98;;;6.82;;
57593;SDS011;43423;46.510;6.686;2023-12-04T00:05:58;19.80;;;7.00;;
57593;SDS011;43423;46.510;6.686;2023-12-04T00:08:23;18.30;;;7.13;;
57593;SDS011;43423;46.510;6.686;2023-12-04T00:10:49;22.00;;;6.32;;
57593;SDS011;43423;46.510;6.686;2023-12-04T00:13:16;16.40;;;6.32;;
57593;SDS011;43423;46.510;6.686;2023-12-04T00:15:41;15.57;;;5.95;;
57593;SDS011;43423;46.510;6.686;2023-12-04T00:18:07;17.67;;;6.80;;
57593;SDS011;43423;46.510;6.686;2023-12-04T00:20:32;13.80;;;6.43;;
57593;SDS011;43423;46.510;6.686;2023-12-04T00:22:58;14.82;;;6.43;;
57593;SDS011;43423;46.510;6.686;2023-12-04T00:25:23;16.80;;;7.00;;
57593;SDS011;43423;46.510;6.686;2023-12-04T00:27:49;13.35;;;5.72;;
57593;SDS011;43423;46.510;6.686;2023-12-04T00:30:15;12.02;;;6.07;;
57593;SDS011;43423;46.510;6.686;2023-12-04T00:32:41;13.98;;;6.43;;
57593;SDS011;43423;46.510;6.686;2023-12-04T00:35:06;15.55;;;6.28;;
57593;SDS011;43423;46.510;6.686;2023-12-04T00:37:32;18.02;;;6.20;;
57593;SDS011;43423;46.510;6.686;2023-12-04T00:40:02;12.02;;;5.13;;
57593;SDS011;43423;46.510;6.686;2023-12-04T00:42:29;13.50;;;5.68;;
57593;SDS011;43423;46.510;6.686;2023-12-04T00:44:55;18.25;;;7.10;;
57593;SDS011;43423;46.510;6.686;2023-12-04T00:47:20;13.15;;;5.03;;
57593;SDS011;43423;46.510;6.686;2023-12-04T00:49:46;10.80;;;4.90;;
57593;SDS011;43423;46.510;6.686;2023-12-04T00:52:12;11.52;;;5.57;;
57593;SDS011;43423;46.510;6.686;2023-12-04T00:54:40;13.07;;;5.57;;
57593;SDS011;43423;46.510;6.686;2023-12-04T00:57:06;11.10;;;5.15;;
57593;SDS011;43423;46.510;6.686;2023-12-04T00:59:34;16.75;;;6.30;;
57593;SDS011;43423;46.510;6.686;2023-12-04T01:02:00;15.65;;;5.68;;
57593;SDS011;43423;46.510;6.686;2023-12-04T01:04:25;15.15;;;6.03;;
57593;SDS011;43423;46.510;6.686;2023-12-04T01:06:52;11.45;;;4.85;;
57593;SDS011;43423;46.510;6.686;2023-12-04T01:09:17;17.13;;;6.05;;
57593;SDS011;43423;46.510;6.686;2023-12-04T01:11:43;15.27;;;6.43;;
57593;SDS011;43423;46.510;6.686;2023-12-04T01:14:09;15.63;;;5.72;;
57593;SDS011;43423;46.510;6.686;2023-12-04T01:16:35;11.90;;;5.65;;
57593;SDS011;43423;46.510;6.686;2023-12-04T01:19:00;14.55;;;5.53;;
57593;SDS011;43423;46.510;6.686;2023-12-04T01:21:26;16.17;;;5.63;;
57593;SDS011;43423;46.510;6.686;2023-12-04T01:23:51;23.02;;;6.55;;
57593;SDS011;43423;46.510;6.686;2023-12-04T01:26:17;17.60;;;7.07;;
57593;SDS011;43423;46.510;6.686;2023-12-04T01:28:43;17.60;;;6.45;;
57593;SDS011;43423;46.510;6.686;2023-12-04T01:31:08;17.85;;;6.93;;
57593;SDS011;43423;46.510;6.686;2023-12-04T01:33:34;18.30;;;7.30;;
57593;SDS011;43423;46.510;6.686;2023-12-04T01:36:01;18.42;;;6.93;;
57593;SDS011;43423;46.510;6.686;2023-12-04T01:38:27;19.35;;;7.38;;
57593;SDS011;43423;46.510;6.686;2023-12-04T01:40:53;19.20;;;6.82;;
57593;SDS011;43423;46.510;6.686;2023-12-04T01:43:18;11.73;;;6.22;;
57593;SDS011;43423;46.510;6.686;2023-12-04T01:45:44;16.17;;;5.97;;
57593;SDS011;43423;46.510;6.686;2023-12-04T01:48:10;15.73;;;7.20;;
57593;SDS011;43423;46.510;6.686;2023-12-04T01:50:36;18.45;;;7.38;;
57593;SDS011;43423;46.510;6.686;2023-12-04T01:53:03;17.05;;;6.55;;
57593;SDS011;43423;46.510;6.686;2023-12-04T01:55:29;15.18;;;5.75;;
57593;SDS011;43423;46.510;6.686;2023-12-04T01:57:55;13.95;;;5.90;;
57593;SDS011;43423;46.510;6.686;2023-12-04T02:00:21;15.65;;;6.68;;
57593;SDS011;43423;46.510;6.686;2023-12-04T02:02:47;17.98;;;7.90;;
57593;SDS011;43423;46.510;6.686;2023-12-04T02:05:13;16.85;;;7.68;;
57593;SDS011;43423;46.510;6.686;2023-12-04T02:07:42;17.40;;;6.47;;
57593;SDS011;43423;46.510;6.686;2023-12-04T02:10:08;14.98;;;6.03;;
57593;SDS011;43423;46.510;6.686;2023-12-04T02:12:34;19.08;;;7.78;;
57593;SDS011;43423;46.510;6.686;2023-12-04T02:15:00;18.58;;;6.88;;
57593;SDS011;43423;46.510;6.686;2023-12-04T02:17:26;11.07;;;5.55;;
57593;SDS011;43423;46.510;6.686;2023-12-04T02:19:54;14.40;;;6.20;;
57593;SDS011;43423;46.510;6.686;2023-12-04T02:22:20;14.38;;;6.65;;
57593;SDS011;43423;46.510;6.686;2023-12-04T02:24:46;18.35;;;7.05;;
57593;SDS011;43423;46.510;6.686;2023-12-04T02:27:15;14.45;;;6.63;;
57593;SDS011;43423;46.510;6.686;2023-12-04T02:29:53;13.80;;;5.90;;
57593;SDS011;43423;46.510;6.686;2023-12-04T02:32:23;16.48;;;7.00;;
57593;SDS011;43423;46.510;6.686;2023-12-04T02:34:50;19.65;;;6.75;;
57593;SDS011;43423;46.510;6.686;2023-12-04T02:37:16;17.10;;;6.82;;
57593;SDS011;43423;46.510;6.686;2023-12-04T02:39:44;16.88;;;6.00;;
57593;SDS011;43423;46.510;6.686;2023-12-04T02:42:12;19.25;;;7.35;;
57593;SDS011;43423;46.510;6.686;2023-12-04T02:44:39;18.77;;;7.55;;
57593;SDS011;43423;46.510;6.686;2023-12-04T02:47:05;12.68;;;6.28;;
57593;SDS011;43423;46.510;6.686;2023-12-04T02:49:31;20.02;;;8.07;;
57593;SDS011;43423;46.510;6.686;2023-12-04T02:51:56;15.10;;;6.03;;
57593;SDS011;43423;46.510;6.686;2023-12-04T02:54:22;15.50;;;6.07;;
57593;SDS011;43423;46.510;6.686;2023-12-04T02:56:48;12.93;;;6.35;;
57593;SDS011;43423;46.510;6.686;2023-12-04T02:59:14;15.48;;;5.53;;
57593;SDS011;43423;46.510;6.686;2023-12-04T03:01:39;13.55;;;6.28;;
57593;SDS011;43423;46.510;6.686;2023-12-04T03:04:05;17.52;;;7.05;;
57593;SDS011;43423;46.510;6.686;2023-12-04T03:06:31;17.27;;;7.35;;
57593;SDS011;43423;46.510;6.686;2023-12-04T03:08:56;20.38;;;8.43;;
57593;SDS011;43423;46.510;6.686;2023-12-04T03:11:24;25.15;;;8.63;;
57593;SDS011;43423;46.510;6.686;2023-12-04T03:13:50;19.23;;;7.28;;
57593;SDS011;43423;46.510;6.686;2023-12-04T03:16:16;23.85;;;7.15;;
57593;SDS011;43423;46.510;6.686;2023-12-04T03:18:42;20.27;;;8.02;;
57593;SDS011;43423;46.510;6.686;2023-12-04T03:21:08;20.08;;;6.90;;
57593;SDS011;43423;46.510;6.686;2023-12-04T03:23:34;17.48;;;6.50;;
57593;SDS011;43423;46.510;6.686;2023-12-04T03:26:00;20.60;;;7.10;;
57593;SDS011;43423;46.510;6.686;2023-12-04T03:28:26;18.42;;;5.68;;
57593;SDS011;43423;46.510;6.686;2023-12-04T03:30:51;15.85;;;5.78;;
57593;SDS011;43423;46.510;6.686;2023-12-04T03:33:17;10.65;;;4.13;;
57593;SDS011;43423;46.510;6.686;2023-12-04T03:35:43;15.10;;;5.07;;
57593;SDS011;43423;46.510;6.686;2023-12-04T03:38:09;11.65;;;5.32;;
57593;SDS011;43423;46.510;6.686;2023-12-04T03:40:35;14.80;;;4.68;;
57593;SDS011;43423;46.510;6.686;2023-12-04T03:43:01;9.68;;;4.32;;
57593;SDS011;43423;46.510;6.686;2023-12-04T03:45:26;6.82;;;3.88;;
57593;SDS011;43423;46.510;6.686;2023-12-04T03:47:52;10.90;;;3.92;;
57593;SDS011;43423;46.510;6.686;2023-12-04T03:50:18;8.50;;;3.78;;
57593;SDS011;43423;46.510;6.686;2023-12-04T03:52:43;14.63;;;4.60;;
57593;SDS011;43423;46.510;6.686;2023-12-04T03:55:09;9.68;;;4.10;;
57593;SDS011;43423;46.510;6.686;2023-12-04T03:57:35;14.70;;;4.20;;
57593;SDS011;43423;46.510;6.686;2023-12-04T04:00:00;13.73;;;4.97;;
57593;SDS011;43423;46.510;6.686;2023-12-04T04:02:26;11.52;;;4.28;;
57593;SDS011;43423;46.510;6.686;2023-12-04T04:04:52;14.57;;;5.68;;
57593;SDS011;43423;46.510;6.686;2023-12-04T04:07:19;9.77;;;3.58;;
57593;SDS011;43423;46.510;6.686;2023-12-04T04:09:44;9.63;;;4.35;;
57593;SDS011;43423;46.510;6.686;2023-12-04T04:12:10;8.48;;;4.20;;
57593;SDS011;43423;46.510;6.686;2023-12-04T04:14:36;10.55;;;4.88;;
57593;SDS011;43423;46.510;6.686;2023-12-04T04:17:02;10.55;;;4.45;;
57593;SDS011;43423;46.510;6.686;2023-12-04T04:19:28;8.90;;;4.30;;
57593;SDS011;43423;46.510;6.686;2023-12-04T04:21:54;10.68;;;5.43;;
57593;SDS011;43423;46.510;6.686;2023-12-04T04:24:20;10.90;;;5.03;;
57593;SDS011;43423;46.510;6.686;2023-12-04T04:26:46;18.40;;;5.22;;
57593;SDS011;43423;46.510;6.686;2023-12-04T04:29:11;11.77;;;4.60;;
57593;SDS011;43423;46.510;6.686;2023-12-04T04:31:37;13.93;;;5.20;;
57593;SDS011;43423;46.510;6.686;2023-12-04T04:34:02;10.50;;;4.35;;
57593;SDS011;43423;46.510;6.686;2023-12-04T04:36:28;13.57;;;4.65;;
57593;SDS011;43423;46.510;6.686;2023-12-04T04:38:54;15.10;;;5.80;;
57593;SDS011;43423;46.510;6.686;2023-12-04T04:41:19;18.95;;;6.47;;
57593;SDS011;43423;46.510;6.686;2023-12-04T04:43:45;17.02;;;6.68;;
57593;SDS011;43423;46.510;6.686;2023-12-04T04:46:11;15.52;;;6.88;;
57593;SDS011;43423;46.510;6.686;2023-12-04T04:48:37;18.50;;;7.25;;
57593;SDS011;43423;46.510;6.686;2023-12-04T04:51:02;19.08;;;6.88;;
57593;SDS011;43423;46.510;6.686;2023-12-04T04:53:29;14.43;;;6.40;;
57593;SDS011;43423;46.510;6.686;2023-12-04T04:55:54;13.82;;;6.53;;
57593;SDS011;43423;46.510;6.686;2023-12-04T04:58:20;18.90;;;6.18;;
57593;SDS011;43423;46.510;6.686;2023-12-04T05:00:45;15.18;;;5.53;;
57593;SDS011;43423;46.510;6.686;2023-12-04T05:03:12;12.75;;;5.93;;
57593;SDS011;43423;46.510;6.686;2023-12-04T05:05:38;17.70;;;5.05;;
57593;SDS011;43423;46.510;6.686;2023-12-04T05:08:04;15.18;;;6.45;;
57593;SDS011;43423;46.510;6.686;2023-12-04T05:10:29;15.10;;;6.53;;
57593;SDS011;43423;46.510;6.686;2023-12-04T05:12:55;20.90;;;6.53;;
57593;SDS011;43423;46.510;6.686;2023-12-04T05:15:20;15.48;;;6.80;;
57593;SDS011;43423;46.510;6.686;2023-12-04T05:17:46;18.08;;;7.45;;
57593;SDS011;43423;46.510;6.686;2023-12-04T05:20:12;12.82;;;5.68;;
57593;SDS011;43423;46.510;6.686;2023-12-04T05:22:39;19.30;;;6.93;;
57593;SDS011;43423;46.510;6.686;2023-12-04T05:25:05;14.80;;;6.82;;
57593;SDS011;43423;46.510;6.686;2023-12-04T05:27:31;18.17;;;6.82;;
57593;SDS011;43423;46.510;6.686;2023-12-04T05:29:57;15.73;;;6.70;;
57593;SDS011;43423;46.510;6.686;2023-12-04T05:32:23;17.35;;;6.85;;
57593;SDS011;43423;46.510;6.686;2023-12-04T05:34:48;15.05;;;7.07;;
57593;SDS011;43423;46.510;6.686;2023-12-04T05:37:14;18.10;;;6.93;;
57593;SDS011;43423;46.510;6.686;2023-12-04T05:39:41;13.85;;;7.10;;
57593;SDS011;43423;46.510;6.686;2023-12-04T05:42:07;21.15;;;8.40;;
57593;SDS011;43423;46.510;6.686;2023-12-04T05:44:33;17.83;;;7.72;;
57593;SDS011;43423;46.510;6.686;2023-12-04T05:47:00;18.55;;;7.15;;
57593;SDS011;43423;46.510;6.686;2023-12-04T05:49:26;17.02;;;7.30;;
57593;SDS011;43423;46.510;6.686;2023-12-04T05:51:51;14.77;;;6.18;;
57593;SDS011;43423;46.510;6.686;2023-12-04T05:54:17;24.70;;;7.75;;
57593;SDS011;43423;46.510;6.686;2023-12-04T05:56:43;26.02;;;8.55;;
57593;SDS011;43423;46.510;6.686;2023-12-04T05:59:08;18.63;;;7.13;;
57593;SDS011;43423;46.510;6.686;2023-12-04T06:01:34;13.93;;;6.80;;
57593;SDS011;43423;46.510;6.686;2023-12-04T06:04:00;14.52;;;6.70;;
57593;SDS011;43423;46.510;6.686;2023-12-04T06:06:26;16.10;;;6.72;;
57593;SDS011;43423;46.510;6.686;2023-12-04T06:08:52;21.00;;;7.35;;
57593;SDS011;43423;46.510;6.686;2023-12-04T06:11:18;20.38;;;8.05;;
57593;SDS011;43423;46.510;6.686;2023-12-04T06:13:43;17.35;;;6.70;;
57593;SDS011;43423;46.510;6.686;2023-12-04T06:16:09;16.23;;;6.57;;
57593;SDS011;43423;46.510;6.686;2023-12-04T06:18:35;20.17;;;7.40;;
57593;SDS011;43423;46.510;6.686;2023-12-04T06:21:01;13.85;;;6.30;;
57593;SDS011;43423;46.510;6.686;2023-12-04T06:23:27;15.45;;;6.82;;
57593;SDS011;43423;46.510;6.686;2023-12-04T06:25:53;14.73;;;6.38;;
57593;SDS011;43423;46.510;6.686;2023-12-04T06:28:19;12.32;;;5.55;;
57593;SDS011;43423;46.510;6.686;2023-12-04T06:30:45;12.07;;;6.55;;
57593;SDS011;43423;46.510;6.686;2023-12-04T06:33:11;17.55;;;7.07;;
57593;SDS011;43423;46.510;6.686;2023-12-04T06:35:38;20.58;;;8.45;;
57593;SDS011;43423;46.510;6.686;2023-12-04T06:38:06;20.55;;;8.27;;
57593;SDS011;43423;46.510;6.686;2023-12-04T06:40:32;16.38;;;6.85;;
57593;SDS011;43423;46.510;6.686;2023-12-04T06:42:59;15.07;;;6.30;;
57593;SDS011;43423;46.510;6.686;2023-12-04T06:45:25;17.15;;;6.88;;
57593;SDS011;43423;46.510;6.686;2023-12-04T06:47:51;17.42;;;7.03;;
57593;SDS011;43423;46.510;6.686;2023-12-04T06:50:19;18.55;;;7.88;;
57593;SDS011;43423;46.510;6.686;2023-12-04T06:52:45;14.10;;;6.90;;
57593;SDS011;43423;46.510;6.686;2023-12-04T06:55:11;17.88;;;7.88;;
57593;SDS011;43423;46.510;6.686;2023-12-04T06:57:37;19.77;;;7.15;;
57593;SDS011;43423;46.510;6.686;2023-12-04T07:00:03;21.45;;;7.43;;
57593;SDS011;43423;46.510;6.686;2023-12-04T07:02:31;19.83;;;7.50;;
57593;SDS011;43423;46.510;6.686;2023-12-04T07:04:57;19.15;;;7.38;;
57593;SDS011;43423;46.510;6.686;2023-12-04T07:07:23;24.90;;;8.93;;
57593;SDS011;43423;46.510;6.686;2023-12-04T07:09:49;14.98;;;7.20;;
57593;SDS011;43423;46.510;6.686;2023-12-04T07:12:14;20.17;;;8.90;;
57593;SDS011;43423;46.510;6.686;2023-12-04T07:14:40;22.08;;;9.05;;
57593;SDS011;43423;46.510;6.686;2023-12-04T07:17:07;20.45;;;9.25;;
57593;SDS011;43423;46.510;6.686;2023-12-04T07:19:32;23.13;;;7.82;;
57593;SDS011;43423;46.510;6.686;2023-12-04T07:21:58;21.10;;;10.85;;
57593;SDS011;43423;46.510;6.686;2023-12-04T07:24:24;33.25;;;12.93;;
57593;SDS011;43423;46.510;6.686;2023-12-04T07:26:51;21.95;;;10.13;;
57593;SDS011;43423;46.510;6.686;2023-12-04T07:29:17;16.52;;;8.43;;
57593;SDS011;43423;46.510;6.686;2023-12-04T07:31:43;23.33;;;7.97;;
57593;SDS011;43423;46.510;6.686;2023-12-04T07:34:09;21.77;;;7.95;;
57593;SDS011;43423;46.510;6.686;2023-12-04T07:36:34;21.17;;;8.70;;
57593;SDS011;43423;46.510;6.686;2023-12-04T07:39:00;20.60;;;9.30;;
57593;SDS011;43423;46.510;6.686;2023-12-04T07:41:26;20.50;;;9.15;;
57593;SDS011;43423;46.510;6.686;2023-12-04T07:43:51;25.27;;;9.13;;
57593;SDS011;43423;46.510;6.686;2023-12-04T07:46:17;26.20;;;7.80;;
57593;SDS011;43423;46.510;6.686;2023-12-04T07:48:43;19.23;;;8.70;;
57593;SDS011;43423;46.510;6.686;2023-12-04T07:51:11;29.90;;;9.35;;
57593;SDS011;43423;46.510;6.686;2023-12-04T07:53:37;19.85;;;8.00;;
57593;SDS011;43423;46.510;6.686;2023-12-04T07:56:03;21.75;;;8.10;;
57593;SDS011;43423;46.510;6.686;2023-12-04T07:58:29;17.73;;;7.97;;
57593;SDS011;43423;46.510;6.686;2023-12-04T08:00:56;17.90;;;7.95;;
57593;SDS011;43423;46.510;6.686;2023-12-04T08:03:23;19.92;;;7.63;;
57593;SDS011;43423;46.510;6.686;2023-12-04T08:05:51;23.85;;;8.55;;
57593;SDS011;43423;46.510;6.686;2023-12-04T08:08:18;19.88;;;6.80;;
57593;SDS011;43423;46.510;6.686;2023-12-04T08:10:44;17.05;;;7.78;;
57593;SDS011;43423;46.510;6.686;2023-12-04T08:13:10;20.75;;;7.43;;
57593;SDS011;43423;46.510;6.686;2023-12-04T08:15:35;16.30;;;7.90;;
57593;SDS011;43423;46.510;6.686;2023-12-04T08:18:01;21.15;;;8.98;;
57593;SDS011;43423;46.510;6.686;2023-12-04T08:20:27;17.63;;;8.23;;
57593;SDS011;43423;46.510;6.686;2023-12-04T08:22:53;23.23;;;10.23;;
57593;SDS011;43423;46.510;6.686;2023-12-04T08:25:20;21.48;;;9.88;;
57593;SDS011;43423;46.510;6.686;2023-12-04T08:27:46;23.75;;;9.93;;
57593;SDS011;43423;46.510;6.686;2023-12-04T08:30:11;21.60;;;9.45;;
57593;SDS011;43423;46.510;6.686;2023-12-04T08:32:37;27.33;;;9.63;;
57593;SDS011;43423;46.510;6.686;2023-12-04T08:35:03;27.33;;;10.38;;
57593;SDS011;43423;46.510;6.686;2023-12-04T08:37:31;25.02;;;8.77;;
57593;SDS011;43423;46.510;6.686;2023-12-04T08:39:57;23.45;;;10.32;;
57593;SDS011;43423;46.510;6.686;2023-12-04T08:42:23;25.20;;;10.20;;
57593;SDS011;43423;46.510;6.686;2023-12-04T08:44:48;21.08;;;8.88;;
57593;SDS011;43423;46.510;6.686;2023-12-04T08:47:14;22.90;;;9.50;;
57593;SDS011;43423;46.510;6.686;2023-12-04T08:49:40;23.67;;;10.27;;
57593;SDS011;43423;46.510;6.686;2023-12-04T08:52:06;27.13;;;10.90;;
57593;SDS011;43423;46.510;6.686;2023-12-04T08:54:32;23.27;;;9.65;;
57593;SDS011;43423;46.510;6.686;2023-12-04T08:56:59;31.25;;;11.30;;
57593;SDS011;43423;46.510;6.686;2023-12-04T08:59:25;24.13;;;9.90;;
57593;SDS011;43423;46.510;6.686;2023-12-04T09:01:51;33.25;;;11.68;;
57593;SDS011;43423;46.510;6.686;2023-12-04T09:04:16;31.58;;;11.45;;
57593;SDS011;43423;46.510;6.686;2023-12-04T09:06:42;23.42;;;9.75;;
57593;SDS011;43423;46.510;6.686;2023-12-04T09:09:07;39.58;;;11.07;;
57593;SDS011;43423;46.510;6.686;2023-12-04T09:11:33;27.00;;;10.50;;
57593;SDS011;43423;46.510;6.686;2023-12-04T09:13:59;27.55;;;9.85;;
57593;SDS011;43423;46.510;6.686;2023-12-04T09:16:24;28.23;;;9.95;;
57593;SDS011;43423;46.510;6.686;2023-12-04T09:18:50;24.38;;;10.35;;
57593;SDS011;43423;46.510;6.686;2023-12-04T09:21:16;33.28;;;10.48;;
57593;SDS011;43423;46.510;6.686;2023-12-04T09:23:42;32.65;;;10.63;;
57593;SDS011;43423;46.510;6.686;2023-12-04T09:26:07;28.73;;;10.75;;
57593;SDS011;43423;46.510;6.686;2023-12-04T09:28:33;29.23;;;10.38;;
57593;SDS011;43423;46.510;6.686;2023-12-04T09:31:02;35.03;;;11.52;;
57593;SDS011;43423;46.510;6.686;2023-12-04T09:33:28;27.83;;;11.02;;
57593;SDS011;43423;46.510;6.686;2023-12-04T09:35:53;22.90;;;9.52;;
57593;SDS011;43423;46.510;6.686;2023-12-04T09:38:19;32.15;;;9.48;;
57593;SDS011;43423;46.510;6.686;2023-12-04T09:40:45;29.45;;;10.02;;
57593;SDS011;43423;46.510;6.686;2023-12-04T09:43:10;23.42;;;10.75;;
57593;SDS011;43423;46.510;6.686;2023-12-04T09:45:36;27.35;;;9.98;;
57593;SDS011;43423;46.510;6.686;2023-12-04T09:48:03;26.95;;;11.05;;
57593;SDS011;43423;46.510;6.686;2023-12-04T09:50:31;24.00;;;9.75;;
57593;SDS011;43423;46.510;6.686;2023-12-04T09:52:57;27.02;;;10.82;;
57593;SDS011;43423;46.510;6.686;2023-12-04T09:55:26;26.05;;;11.48;;
57593;SDS011;43423;46.510;6.686;2023-12-04T09:57:52;26.95;;;8.60;;
57593;SDS011;43423;46.510;6.686;2023-12-04T10:00:18;24.48;;;9.88;;
57593;SDS011;43423;46.510;6.686;2023-12-04T10:02:47;23.38;;;10.10;;
57593;SDS011;43423;46.510;6.686;2023-12-04T10:05:13;28.92;;;9.90;;
57593;SDS011;43423;46.510;6.686;2023-12-04T10:07:38;28.60;;;10.52;;
57593;SDS011;43423;46.510;6.686;2023-12-04T10:10:04;26.25;;;9.80;;
57593;SDS011;43423;46.510;6.686;2023-12-04T10:12:31;28.08;;;11.05;;
57593;SDS011;43423;46.510;6.686;2023-12-04T10:15:06;26.98;;;10.73;;
57593;SDS011;43423;46.510;6.686;2023-12-04T10:17:33;26.85;;;10.25;;
57593;SDS011;43423;46.510;6.686;2023-12-04T10:20:11;23.25;;;10.02;;
57593;SDS011;43423;46.510;6.686;2023-12-04T10:22:38;21.92;;;8.90;;
57593;SDS011;43423;46.510;6.686;2023-12-04T10:25:14;28.30;;;11.13;;
57593;SDS011;43423;46.510;6.686;2023-12-04T10:27:41;26.65;;;11.10;;
57593;SDS011;43423;46.510;6.686;2023-12-04T10:30:07;23.73;;;9.18;;
57593;SDS011;43423;46.510;6.686;2023-12-04T10:32:36;25.38;;;10.02;;
57593;SDS011;43423;46.510;6.686;2023-12-04T10:35:05;26.00;;;10.88;;
57593;SDS011;43423;46.510;6.686;2023-12-04T10:37:35;29.08;;;10.52;;
57593;SDS011;43423;46.510;6.686;2023-12-04T10:40:02;29.25;;;10.55;;
57593;SDS011;43423;46.510;6.686;2023-12-04T10:42:29;34.50;;;11.07;;
57593;SDS011;43423;46.510;6.686;2023-12-04T10:44:58;29.50;;;10.70;;
57593;SDS011;43423;46.510;6.686;2023-12-04T10:47:24;26.08;;;8.95;;
57593;SDS011;43423;46.510;6.686;2023-12-04T10:49:51;25.83;;;9.48;;
57593;SDS011;43423;46.510;6.686;2023-12-04T10:52:17;25.48;;;10.50;;
57593;SDS011;43423;46.510;6.686;2023-12-04T10:54:48;23.58;;;8.48;;
57593;SDS011;43423;46.510;6.686;2023-12-04T10:57:21;21.83;;;9.48;;
57593;SDS011;43423;46.510;6.686;2023-12-04T10:59:51;18.15;;;8.25;;
57593;SDS011;43423;46.510;6.686;2023-12-04T11:02:21;25.35;;;8.10;;
57593;SDS011;43423;46.510;6.686;2023-12-04T11:04:54;27.30;;;9.37;;
57593;SDS011;43423;46.510;6.686;2023-12-04T11:07:24;22.25;;;9.13;;
57593;SDS011;43423;46.510;6.686;2023-12-04T11:09:52;20.60;;;8.75;;
57593;SDS011;43423;46.510;6.686;2023-12-04T11:12:21;21.10;;;8.68;;
57593;SDS011;43423;46.510;6.686;2023-12-04T11:14:51;21.95;;;8.32;;
57593;SDS011;43423;46.510;6.686;2023-12-04T11:17:21;21.90;;;8.43;;
57593;SDS011;43423;46.510;6.686;2023-12-04T11:22:42;16.05;;;7.55;;
57593;SDS011;43423;46.510;6.686;2023-12-04T11:25:10;18.55;;;8.05;;
57593;SDS011;43423;46.510;6.686;2023-12-04T11:27:38;19.83;;;8.10;;
57593;SDS011;43423;46.510;6.686;2023-12-04T11:30:05;23.00;;;8.82;;
57593;SDS011;43423;46.510;6.686;2023-12-04T11:32:32;19.23;;;7.78;;
57593;SDS011;43423;46.510;6.686;2023-12-04T11:35:12;28.40;;;9.25;;
57593;SDS011;43423;46.510;6.686;2023-12-04T11:37:39;13.45;;;6.95;;
57593;SDS011;43423;46.510;6.686;2023-12-04T11:40:06;23.02;;;8.27;;
57593;SDS011;43423;46.510;6.686;2023-12-04T11:42:32;26.27;;;9.52;;
57593;SDS011;43423;46.510;6.686;2023-12-04T11:44:58;19.27;;;8.13;;
57593;SDS011;43423;46.510;6.686;2023-12-04T11:47:24;21.25;;;8.52;;
57593;SDS011;43423;46.510;6.686;2023-12-04T11:49:50;21.00;;;8.02;;
57593;SDS011;43423;46.510;6.686;2023-12-04T11:52:15;24.77;;;10.18;;
57593;SDS011;43423;46.510;6.686;2023-12-04T11:54:55;25.10;;;11.05;;
57593;SDS011;43423;46.510;6.686;2023-12-04T11:57:37;23.83;;;9.85;;
57593;SDS011;43423;46.510;6.686;2023-12-04T12:00:09;28.13;;;9.32;;
57593;SDS011;43423;46.510;6.686;2023-12-04T12:03:00;21.00;;;10.48;;
57593;SDS011;43423;46.510;6.686;2023-12-04T12:05:32;18.95;;;8.32;;
57593;SDS011;43423;46.510;6.686;2023-12-04T12:08:02;24.60;;;9.05;;
57593;SDS011;43423;46.510;6.686;2023-12-04T12:10:29;21.88;;;8.70;;
57593;SDS011;43423;46.510;6.686;2023-12-04T12:12:55;24.10;;;8.85;;
57593;SDS011;43423;46.510;6.686;2023-12-04T12:15:22;25.85;;;9.07;;
57593;SDS011;43423;46.510;6.686;2023-12-04T12:17:49;23.23;;;9.13;;
57593;SDS011;43423;46.510;6.686;2023-12-04T12:20:15;16.27;;;7.13;;
57593;SDS011;43423;46.510;6.686;2023-12-04T12:22:41;19.65;;;7.47;;
57593;SDS011;43423;46.510;6.686;2023-12-04T12:25:12;13.45;;;5.78;;
57593;SDS011;43423;46.510;6.686;2023-12-04T12:27:38;16.98;;;7.35;;
57593;SDS011;43423;46.510;6.686;2023-12-04T12:30:06;12.57;;;5.07;;
57593;SDS011;43423;46.510;6.686;2023-12-04T12:32:32;12.73;;;5.82;;
57593;SDS011;43423;46.510;6.686;2023-12-04T12:34:59;18.67;;;5.43;;
57593;SDS011;43423;46.510;6.686;2023-12-04T12:37:25;14.27;;;6.22;;
57593;SDS011;43423;46.510;6.686;2023-12-04T12:39:51;18.42;;;7.22;;
57593;SDS011;43423;46.510;6.686;2023-12-04T12:42:21;18.42;;;6.50;;
57593;SDS011;43423;46.510;6.686;2023-12-04T12:44:48;16.00;;;5.85;;
57593;SDS011;43423;46.510;6.686;2023-12-04T12:47:14;26.77;;;6.28;;
57593;SDS011;43423;46.510;6.686;2023-12-04T12:49:40;19.00;;;6.60;;
57593;SDS011;43423;46.510;6.686;2023-12-04T12:52:06;15.43;;;5.50;;
57593;SDS011;43423;46.510;6.686;2023-12-04T12:54:36;21.23;;;6.45;;
57593;SDS011;43423;46.510;6.686;2023-12-04T12:57:02;13.75;;;6.00;;
57593;SDS011;43423;46.510;6.686;2023-12-04T12:59:28;16.10;;;6.28;;
57593;SDS011;43423;46.510;6.686;2023-12-04T13:01:53;15.40;;;6.22;;
57593;SDS011;43423;46.510;6.686;2023-12-04T13:04:19;19.00;;;7.50;;
57593;SDS011;43423;46.510;6.686;2023-12-04T13:06:45;20.33;;;8.00;;
57593;SDS011;43423;46.510;6.686;2023-12-04T13:09:11;16.55;;;6.88;;
57593;SDS011;43423;46.510;6.686;2023-12-04T13:11:47;16.92;;;6.88;;
57593;SDS011;43423;46.510;6.686;2023-12-04T13:14:13;17.10;;;6.85;;
57593;SDS011;43423;46.510;6.686;2023-12-04T13:16:38;16.25;;;6.68;;
57593;SDS011;43423;46.510;6.686;2023-12-04T13:19:05;20.50;;;7.25;;
57593;SDS011;43423;46.510;6.686;2023-12-04T13:21:31;14.95;;;6.07;;
57593;SDS011;43423;46.510;6.686;2023-12-04T13:23:57;15.05;;;6.00;;
57593;SDS011;43423;46.510;6.686;2023-12-04T13:26:22;14.90;;;6.50;;
57593;SDS011;43423;46.510;6.686;2023-12-04T13:28:48;14.23;;;5.88;;
57593;SDS011;43423;46.510;6.686;2023-12-04T13:31:14;15.88;;;6.00;;
57593;SDS011;43423;46.510;6.686;2023-12-04T13:33:40;15.45;;;5.60;;
57593;SDS011;43423;46.510;6.686;2023-12-04T13:36:07;13.52;;;5.38;;
57593;SDS011;43423;46.510;6.686;2023-12-04T13:38:34;20.48;;;5.97;;
57593;SDS011;43423;46.510;6.686;2023-12-04T13:41:00;14.18;;;6.07;;
57593;SDS011;43423;46.510;6.686;2023-12-04T13:43:44;13.02;;;6.15;;
57593;SDS011;43423;46.510;6.686;2023-12-04T13:46:15;11.57;;;5.95;;
57593;SDS011;43423;46.510;6.686;2023-12-04T13:48:41;29.42;;;7.45;;
57593;SDS011;43423;46.510;6.686;2023-12-04T13:51:10;19.45;;;7.35;;
57593;SDS011;43423;46.510;6.686;2023-12-04T13:53:37;18.02;;;6.28;;
57593;SDS011;43423;46.510;6.686;2023-12-04T13:56:05;14.35;;;6.75;;
57593;SDS011;43423;46.510;6.686;2023-12-04T13:58:47;17.23;;;6.03;;
57593;SDS011;43423;46.510;6.686;2023-12-04T14:01:15;20.95;;;6.78;;
57593;SDS011;43423;46.510;6.686;2023-12-04T14:03:47;14.35;;;5.63;;
57593;SDS011;43423;46.510;6.686;2023-12-04T14:06:13;21.40;;;8.48;;
57593;SDS011;43423;46.510;6.686;2023-12-04T14:08:40;20.73;;;7.93;;
57593;SDS011;43423;46.510;6.686;2023-12-04T14:11:06;21.15;;;7.35;;
57593;SDS011;43423;46.510;6.686;2023-12-04T14:13:32;20.30;;;6.50;;
57593;SDS011;43423;46.510;6.686;2023-12-04T14:15:58;17.40;;;6.10;;
57593;SDS011;43423;46.510;6.686;2023-12-04T14:18:24;16.65;;;7.07;;
57593;SDS011;43423;46.510;6.686;2023-12-04T14:20:51;14.18;;;5.75;;
57593;SDS011;43423;46.510;6.686;2023-12-04T14:23:17;14.10;;;6.10;;
57593;SDS011;43423;46.510;6.686;2023-12-04T14:25:44;14.88;;;5.88;;
57593;SDS011;43423;46.510;6.686;2023-12-04T14:28:10;14.50;;;5.28;;
57593;SDS011;43423;46.510;6.686;2023-12-04T14:30:36;16.23;;;6.30;;
57593;SDS011;43423;46.510;6.686;2023-12-04T14:33:02;12.60;;;5.85;;